createdAt,value
2023-04-11T00:00:30.083Z,13.80
2023-04-11T00:03:01.731Z,13.77
2023-04-11T00:05:31.298Z,13.77
2023-04-11T00:07:57.884Z,13.71
2023-04-11T00:10:24.498Z,13.74
2023-04-11T00:12:56.329Z,13.70
2023-04-11T00:15:26.655Z,13.70
2023-04-11T00:17:54.803Z,13.69
2023-04-11T00:20:21.691Z,13.67
2023-04-11T00:22:48.206Z,13.63
2023-04-11T00:25:15.262Z,13.64
2023-04-11T00:27:41.702Z,13.62
2023-04-11T00:30:08.412Z,13.57
2023-04-11T00:32:34.872Z,13.59
2023-04-11T00:35:01.820Z,13.59
2023-04-11T00:37:28.386Z,13.56
2023-04-11T00:39:56.139Z,13.55
2023-04-11T00:42:22.991Z,13.50
2023-04-11T00:44:50.757Z,13.50
2023-04-11T00:47:18.532Z,13.50
2023-04-11T00:49:45.981Z,13.47
2023-04-11T00:52:13.631Z,13.44
2023-04-11T00:54:40.299Z,13.43
2023-04-11T00:57:08.176Z,13.43
2023-04-11T00:59:35.151Z,13.40
2023-04-11T01:02:01.997Z,13.39
2023-04-11T01:04:29.635Z,13.38
2023-04-11T01:07:05.765Z,13.36
2023-04-11T01:09:34.342Z,13.34
2023-04-11T01:12:02.963Z,13.36
2023-04-11T01:14:29.880Z,13.35
2023-04-11T01:16:57.238Z,13.26
2023-04-11T01:19:29.205Z,13.31
2023-04-11T01:21:57.775Z,13.30
2023-04-11T01:24:24.810Z,13.28
2023-04-11T01:26:52.065Z,13.25
2023-04-11T01:29:19.133Z,13.26
2023-04-11T01:31:46.341Z,13.24
2023-04-11T01:34:14.709Z,13.23
2023-04-11T01:36:42.400Z,13.19
2023-04-11T01:39:09.213Z,13.19
2023-04-11T01:41:36.369Z,13.19
2023-04-11T01:44:04.243Z,13.17
2023-04-11T01:46:31.117Z,13.17
2023-04-11T01:49:00.296Z,13.17
2023-04-11T01:51:27.172Z,13.13
2023-04-11T01:53:54.262Z,13.13
2023-04-11T01:56:20.826Z,13.13
2023-04-11T01:58:47.339Z,13.12
2023-04-11T02:01:17.636Z,13.10
2023-04-11T02:03:44.123Z,13.04
2023-04-11T02:06:10.645Z,13.06
2023-04-11T02:08:37.092Z,13.05
2023-04-11T02:11:03.635Z,13.05
2023-04-11T02:13:30.206Z,13.04
2023-04-11T02:15:56.708Z,13.00
2023-04-11T02:18:25.983Z,13.03
2023-04-11T02:20:52.676Z,12.99
2023-04-11T02:23:19.138Z,13.01
2023-04-11T02:25:46.466Z,12.92
2023-04-11T02:28:12.898Z,12.95
2023-04-11T02:30:39.397Z,12.98
2023-04-11T02:33:05.886Z,12.97
2023-04-11T02:35:32.887Z,12.96
2023-04-11T02:38:01.048Z,12.94
2023-04-11T02:40:29.865Z,12.92
2023-04-11T02:42:56.272Z,12.92
2023-04-11T02:45:22.811Z,12.92
2023-04-11T02:47:49.322Z,12.92
2023-04-11T02:50:16.528Z,12.88
2023-04-11T02:52:49.635Z,12.88
2023-04-11T02:55:19.921Z,12.86
2023-04-11T02:57:46.355Z,12.86
2023-04-11T03:00:16.611Z,12.84
2023-04-11T03:02:50.239Z,12.83
2023-04-11T03:05:20.962Z,12.82
2023-04-11T03:07:50.214Z,12.80
2023-04-11T03:10:16.799Z,12.76
2023-04-11T03:12:43.568Z,12.77
2023-04-11T03:15:11.343Z,12.76
2023-04-11T03:17:37.874Z,12.73
2023-04-11T03:20:07.181Z,12.73
2023-04-11T03:22:34.210Z,12.72
2023-04-11T03:25:00.849Z,12.72
2023-04-11T03:27:27.317Z,12.66
2023-04-11T03:29:58.425Z,12.62
2023-04-11T03:32:37.415Z,12.60
2023-04-11T03:35:04.184Z,12.58
2023-04-11T03:37:30.641Z,12.58
2023-04-11T03:39:57.058Z,12.58
2023-04-11T03:42:23.787Z,12.57
2023-04-11T03:44:55.265Z,12.53
2023-04-11T03:47:24.533Z,12.53
2023-04-11T03:49:51.269Z,12.47
2023-04-11T03:52:18.080Z,12.44
2023-04-11T03:54:47.895Z,12.45
2023-04-11T03:57:15.530Z,12.41
2023-04-11T03:59:42.072Z,12.38
2023-04-11T04:02:12.090Z,12.34
2023-04-11T04:04:47.132Z,12.33
2023-04-11T04:07:43.147Z,12.31
2023-04-11T04:10:21.453Z,12.29
2023-04-11T04:12:52.472Z,12.25
2023-04-11T04:15:32.891Z,12.21
2023-04-11T04:18:00.841Z,12.20
2023-04-11T04:20:41.568Z,12.20
2023-04-11T04:23:08.480Z,12.17
2023-04-11T04:25:52.676Z,12.13
2023-04-11T04:28:25.922Z,12.13
2023-04-11T04:30:54.555Z,12.11
2023-04-11T04:35:58.028Z,12.07
2023-04-11T04:38:28.888Z,12.03
2023-04-11T04:40:58.939Z,12.00
2023-04-11T04:43:27.230Z,12.00
2023-04-11T04:46:01.889Z,11.97
2023-04-11T04:48:39.397Z,11.96
2023-04-11T04:51:06.921Z,11.93
2023-04-11T04:53:38.500Z,11.91
2023-04-11T04:56:06.338Z,11.89
2023-04-11T04:58:37.294Z,11.86
2023-04-11T05:01:09.112Z,11.88
2023-04-11T05:03:38.585Z,11.86
2023-04-11T05:06:09.673Z,11.83
2023-04-11T05:08:37.296Z,11.82
2023-04-11T05:11:06.273Z,11.80
2023-04-11T05:13:34.314Z,11.78
2023-04-11T05:16:02.332Z,11.74
2023-04-11T05:18:30.528Z,11.73
2023-04-11T05:20:57.511Z,11.72
2023-04-11T05:23:29.133Z,11.69
2023-04-11T05:25:59.323Z,11.70
2023-04-11T05:28:26.172Z,11.66
2023-04-11T05:30:53.382Z,11.65
2023-04-11T05:33:19.930Z,11.63
2023-04-11T05:35:46.420Z,11.63
2023-04-11T05:38:12.909Z,11.62
2023-04-11T05:40:39.803Z,11.61
2023-04-11T05:43:06.417Z,11.59
2023-04-11T05:45:32.931Z,11.59
2023-04-11T05:47:59.461Z,11.58
2023-04-11T05:50:26.110Z,11.54
2023-04-11T05:52:52.547Z,11.54
2023-04-11T05:55:19.077Z,11.53
2023-04-11T05:57:45.505Z,11.50
2023-04-11T06:00:13.117Z,11.52
2023-04-11T06:02:41.969Z,11.50
2023-04-11T06:05:11.942Z,11.49
2023-04-11T06:07:39.384Z,11.49
2023-04-11T06:10:07.497Z,11.46
2023-04-11T06:12:33.948Z,11.45
2023-04-11T06:15:00.641Z,11.47
2023-04-11T06:17:27.109Z,11.45
2023-04-11T06:19:53.741Z,11.47
2023-04-11T06:22:20.212Z,11.45
2023-04-11T06:24:47.616Z,11.45
2023-04-11T06:27:14.329Z,11.44
2023-04-11T06:29:43.489Z,11.44
2023-04-11T06:32:11.945Z,11.44
2023-04-11T06:34:39.407Z,11.44
2023-04-11T06:37:07.235Z,11.43
2023-04-11T06:39:34.521Z,11.43
2023-04-11T06:42:02.073Z,11.43
2023-04-11T06:44:31.685Z,11.43
2023-04-11T06:46:59.120Z,11.42
2023-04-11T06:49:26.883Z,11.44
2023-04-11T06:51:54.597Z,11.41
2023-04-11T06:54:21.963Z,11.42
2023-04-11T06:56:50.652Z,11.43
2023-04-11T06:59:19.659Z,11.40
2023-04-11T07:01:46.512Z,11.40
2023-04-11T07:04:13.007Z,11.42
2023-04-11T07:06:39.556Z,11.42
2023-04-11T07:09:06.346Z,11.43
2023-04-11T07:11:33.502Z,11.43
2023-04-11T07:14:00.557Z,11.43
2023-04-11T07:16:27.304Z,11.44
2023-04-11T07:18:54.845Z,11.43
2023-04-11T07:21:21.614Z,11.44
2023-04-11T07:23:48.266Z,11.44
2023-04-11T07:26:16.806Z,11.43
2023-04-11T07:28:44.945Z,11.46
2023-04-11T07:31:12.566Z,11.47
2023-04-11T07:33:39.575Z,11.46
2023-04-11T07:36:07.100Z,11.48
2023-04-11T07:38:34.064Z,11.48
2023-04-11T07:41:02.969Z,11.48
2023-04-11T07:43:29.704Z,11.47
2023-04-11T07:45:57.462Z,11.47
2023-04-11T07:48:25.240Z,11.47
2023-04-11T07:50:52.979Z,11.45
2023-04-11T07:53:19.854Z,11.46
2023-04-11T07:55:46.300Z,11.46
2023-04-11T07:58:12.869Z,11.46
2023-04-11T08:00:39.451Z,11.46
2023-04-11T08:03:07.639Z,11.47
2023-04-11T08:05:35.706Z,11.48
2023-04-11T08:08:03.550Z,11.48
2023-04-11T08:10:30.227Z,11.48
2023-04-11T08:12:58.450Z,11.48
2023-04-11T08:15:25.991Z,11.48
2023-04-11T08:17:56.059Z,11.49
2023-04-11T08:20:24.216Z,11.52
2023-04-11T08:22:50.838Z,11.53
2023-04-11T08:25:22.748Z,11.55
2023-04-11T08:27:50.011Z,11.56
2023-04-11T08:30:17.282Z,11.59
2023-04-11T08:32:44.056Z,11.61
2023-04-11T08:35:10.720Z,11.62
2023-04-11T08:37:37.142Z,11.63
2023-04-11T08:40:06.801Z,11.64
2023-04-11T08:42:34.204Z,11.68
2023-04-11T08:45:08.165Z,11.69
2023-04-11T08:47:35.989Z,11.69
2023-04-11T08:50:03.657Z,11.71
2023-04-11T08:52:31.457Z,11.70
2023-04-11T08:54:57.917Z,11.73
2023-04-11T08:57:31.284Z,11.74
2023-04-11T09:00:02.151Z,11.75
2023-04-11T09:02:28.708Z,11.75
2023-04-11T09:04:57.628Z,11.77
2023-04-11T09:07:24.289Z,11.79
2023-04-11T09:09:51.041Z,11.79
2023-04-11T09:12:21.439Z,11.82
2023-04-11T09:14:47.845Z,11.84
2023-04-11T09:17:14.559Z,11.85
2023-04-11T09:19:46.835Z,11.86
2023-04-11T09:22:15.637Z,11.89
2023-04-11T09:24:42.843Z,11.91
2023-04-11T09:27:10.836Z,11.93
2023-04-11T09:29:39.713Z,11.94
2023-04-11T09:32:06.692Z,11.95
2023-04-11T09:34:34.746Z,11.98
2023-04-11T09:37:02.064Z,11.99
2023-04-11T09:39:30.127Z,12.02
2023-04-11T09:41:57.525Z,12.02
2023-04-11T09:44:38.457Z,12.02
2023-04-11T09:47:05.140Z,12.02
2023-04-11T09:49:34.157Z,12.03
2023-04-11T09:52:01.943Z,12.06
2023-04-11T09:54:29.184Z,12.04
2023-04-11T09:56:57.068Z,12.00
2023-04-11T09:59:26.683Z,12.02
2023-04-11T10:01:53.342Z,12.01
2023-04-11T10:04:20.418Z,12.00
2023-04-11T10:07:02.069Z,11.93
2023-04-11T10:09:31.207Z,11.93
2023-04-11T10:11:57.705Z,11.93
2023-04-11T10:14:39.721Z,11.88
2023-04-11T10:17:21.186Z,11.87
2023-04-11T10:19:50.541Z,11.85
2023-04-11T10:22:49.578Z,11.76
2023-04-11T10:25:24.500Z,11.76
2023-04-11T10:27:53.555Z,11.78
2023-04-11T10:30:40.743Z,11.75
2023-04-11T10:33:14.943Z,11.72
2023-04-11T10:36:02.882Z,11.69
2023-04-11T10:38:49.957Z,11.63
2023-04-11T10:41:22.562Z,11.65
2023-04-11T10:43:49.708Z,11.62
2023-04-11T10:46:20.822Z,11.60
2023-04-11T10:49:07.542Z,11.57
2023-04-11T10:51:34.348Z,11.55
2023-04-11T10:54:01.979Z,11.53
2023-04-11T10:56:54.180Z,11.47
2023-04-11T10:59:34.170Z,11.46
2023-04-11T11:02:02.330Z,11.45
2023-04-11T11:04:39.395Z,11.42
2023-04-11T11:07:07.841Z,11.42
2023-04-11T11:09:34.987Z,11.40
2023-04-11T11:12:12.684Z,11.36
2023-04-11T11:14:41.106Z,11.34
2023-04-11T11:17:08.835Z,11.34
2023-04-11T11:19:35.993Z,11.30
2023-04-11T11:22:06.698Z,11.31
2023-04-11T11:24:33.214Z,11.31
2023-04-11T11:26:59.603Z,11.30
2023-04-11T11:29:40.137Z,11.28
2023-04-11T11:32:07.113Z,11.27
2023-04-11T11:34:34.849Z,11.30
2023-04-11T11:37:07.054Z,11.30
2023-04-11T11:39:34.688Z,11.31
2023-04-11T11:42:01.621Z,11.31
2023-04-11T11:44:30.002Z,11.32
2023-04-11T11:47:12.267Z,11.37
2023-04-11T11:49:54.675Z,11.39
2023-04-11T11:52:34.780Z,11.41
2023-04-11T11:55:03.191Z,11.44
2023-04-11T11:57:29.759Z,11.45
2023-04-11T11:59:57.802Z,11.48
2023-04-11T12:02:26.099Z,11.51
2023-04-11T12:04:57.931Z,11.50
2023-04-11T12:07:24.603Z,11.54
2023-04-11T12:10:01.102Z,11.54
2023-04-11T12:12:38.379Z,11.55
2023-04-11T12:15:22.078Z,11.55
2023-04-11T12:17:52.804Z,11.55
2023-04-11T12:20:23.942Z,11.54
2023-04-11T12:22:52.150Z,11.53
2023-04-11T12:25:20.682Z,11.50
2023-04-11T12:27:48.512Z,11.48
2023-04-11T12:30:15.322Z,11.44
2023-04-11T12:32:42.893Z,11.43
2023-04-11T12:35:10.560Z,11.40
2023-04-11T12:37:37.115Z,11.35
2023-04-11T12:40:10.995Z,11.35
2023-04-11T12:42:49.534Z,11.31
2023-04-11T12:45:22.175Z,11.26
2023-04-11T12:47:48.961Z,11.26
2023-04-11T12:50:15.411Z,11.24
2023-04-11T12:52:41.936Z,11.25
2023-04-11T12:55:09.369Z,11.23
2023-04-11T12:57:36.536Z,11.23
2023-04-11T13:00:11.486Z,11.22
2023-04-11T13:02:43.200Z,11.25
2023-04-11T13:05:11.954Z,11.25
2023-04-11T13:07:39.026Z,11.23
2023-04-11T13:10:07.724Z,11.26
2023-04-11T13:12:39.589Z,11.25
2023-04-11T13:15:07.918Z,11.28
2023-04-11T13:17:34.619Z,11.30
2023-04-11T13:20:01.298Z,11.29
2023-04-11T13:22:27.753Z,11.30
2023-04-11T13:24:54.196Z,11.31
2023-04-11T13:27:22.014Z,11.29
2023-04-11T13:29:48.543Z,11.32
2023-04-11T13:32:14.972Z,11.34
2023-04-11T13:34:41.449Z,11.35
2023-04-11T13:37:07.935Z,11.35
2023-04-11T13:39:34.471Z,11.35
2023-04-11T13:42:00.881Z,11.35
2023-04-11T13:44:27.316Z,11.35
2023-04-11T13:46:53.737Z,11.31
2023-04-11T13:49:20.261Z,11.32
2023-04-11T13:51:47.133Z,11.34
2023-04-11T13:54:13.993Z,11.33
2023-04-11T13:56:41.113Z,11.28
2023-04-11T13:59:07.684Z,11.29
2023-04-11T14:01:34.601Z,11.27
2023-04-11T14:04:01.574Z,11.23
2023-04-11T14:06:28.377Z,11.27
2023-04-11T14:08:55.005Z,11.24
2023-04-11T14:11:21.575Z,11.26
2023-04-11T14:13:48.809Z,11.26
2023-04-11T14:16:15.700Z,11.24
2023-04-11T14:18:42.244Z,11.24
2023-04-11T14:21:08.783Z,11.25
2023-04-11T14:23:35.718Z,11.23
2023-04-11T14:26:02.148Z,11.26
2023-04-11T14:28:28.616Z,11.25
2023-04-11T14:30:56.091Z,11.27
2023-04-11T14:33:23.104Z,11.26
2023-04-11T14:35:50.970Z,11.27
2023-04-11T14:38:17.485Z,11.28
2023-04-11T14:40:44.350Z,11.29
2023-04-11T14:43:11.262Z,11.26
2023-04-11T14:45:37.813Z,11.27
2023-04-11T14:48:04.794Z,11.31
2023-04-11T14:50:31.340Z,11.32
2023-04-11T14:52:57.921Z,11.32
2023-04-11T14:55:24.515Z,11.28
2023-04-11T14:57:55.699Z,11.26
2023-04-11T15:00:22.792Z,11.25
2023-04-11T15:02:56.094Z,11.23
2023-04-11T15:05:23.444Z,11.20
2023-04-11T15:07:52.152Z,11.17
2023-04-11T15:10:21.315Z,11.15
2023-04-11T15:12:48.107Z,11.12
2023-04-11T15:15:15.751Z,11.08
2023-04-11T15:17:47.253Z,11.06
2023-04-11T15:20:14.693Z,11.01
2023-04-11T15:22:42.872Z,11.00
2023-04-11T15:25:12.136Z,10.94
2023-04-11T15:27:39.103Z,10.95
2023-04-11T15:30:06.490Z,10.94
2023-04-11T15:32:33.655Z,10.92
2023-04-11T15:35:00.299Z,10.95
2023-04-11T15:37:27.096Z,10.94
2023-04-11T15:39:53.941Z,10.94
2023-04-11T15:42:20.380Z,10.94
2023-04-11T15:44:46.842Z,10.94
2023-04-11T15:47:13.511Z,10.95
2023-04-11T15:49:40.023Z,10.94
2023-04-11T15:52:07.107Z,10.95
2023-04-11T15:54:33.797Z,10.94
2023-04-11T15:57:00.369Z,10.93
2023-04-11T15:59:26.877Z,10.94
2023-04-11T16:01:53.460Z,10.94
2023-04-11T16:04:20.789Z,10.94
2023-04-11T16:06:47.410Z,10.92
2023-04-11T16:09:13.858Z,10.94
2023-04-11T16:11:40.807Z,10.94
2023-04-11T16:14:07.349Z,10.93
2023-04-11T16:16:34.026Z,10.96
2023-04-11T16:19:00.648Z,10.97
2023-04-11T16:21:27.453Z,10.97
2023-04-11T16:23:54.859Z,10.94
2023-04-11T16:26:21.630Z,10.98
2023-04-11T16:28:48.839Z,10.97
2023-04-11T16:31:21.807Z,10.97
2023-04-11T16:33:48.388Z,10.95
2023-04-11T16:36:17.022Z,10.96
2023-04-11T16:38:43.878Z,10.97
2023-04-11T16:41:10.337Z,10.93
2023-04-11T16:43:37.062Z,11.01
2023-04-11T16:46:04.036Z,11.02
2023-04-11T16:48:31.514Z,11.02
2023-04-11T16:50:58.005Z,11.04
2023-04-11T16:53:24.565Z,11.07
2023-04-11T16:55:52.561Z,11.11
2023-04-11T16:58:19.288Z,11.07
2023-04-11T17:00:46.819Z,11.08
2023-04-11T17:03:13.452Z,11.10
2023-04-11T17:05:40.768Z,11.10
2023-04-11T17:08:07.353Z,11.12
2023-04-11T17:10:33.948Z,11.11
2023-04-11T17:13:00.794Z,11.14
2023-04-11T17:15:27.429Z,11.14
2023-04-11T17:17:53.923Z,11.13
2023-04-11T17:20:22.866Z,11.13
2023-04-11T17:22:49.653Z,11.12
2023-04-11T17:25:16.804Z,11.10
2023-04-11T17:27:43.418Z,11.08
2023-04-11T17:30:10.196Z,11.09
2023-04-11T17:32:38.036Z,11.07
2023-04-11T17:35:06.672Z,11.09
2023-04-11T17:37:33.967Z,11.05
2023-04-11T17:40:00.767Z,11.04
2023-04-11T17:42:27.271Z,11.04
2023-04-11T17:44:55.756Z,11.00
2023-04-11T17:47:23.757Z,11.03
2023-04-11T17:49:50.509Z,11.01
2023-04-11T17:52:17.129Z,10.97
2023-04-11T17:54:43.670Z,10.98
2023-04-11T17:57:10.119Z,10.98
2023-04-11T17:59:36.685Z,10.95
2023-04-11T18:02:03.282Z,10.95
2023-04-11T18:04:30.054Z,10.94
2023-04-11T18:06:58.175Z,10.92
2023-04-11T18:09:27.427Z,10.91
2023-04-11T18:11:54.039Z,10.90
2023-04-11T18:14:20.614Z,10.88
2023-04-11T18:16:47.422Z,10.87
2023-04-11T18:19:13.930Z,10.86
2023-04-11T18:21:40.998Z,10.84
2023-04-11T18:24:07.637Z,10.83
2023-04-11T18:26:35.413Z,10.82
2023-04-11T18:29:01.855Z,10.81
2023-04-11T18:31:28.454Z,10.77
2023-04-11T18:33:55.445Z,10.76
2023-04-11T18:36:22.586Z,10.75
2023-04-11T18:38:49.530Z,10.75
2023-04-11T18:41:17.612Z,10.73
2023-04-11T18:43:44.933Z,10.67
2023-04-11T18:46:11.533Z,10.69
2023-04-11T18:48:38.192Z,10.64
2023-04-11T18:51:05.079Z,10.64
2023-04-11T18:53:31.820Z,10.63
2023-04-11T18:56:02.828Z,10.61
2023-04-11T18:58:31.828Z,10.56
2023-04-11T19:01:03.617Z,10.55
2023-04-11T19:03:36.702Z,10.50
2023-04-11T19:06:03.767Z,10.50
2023-04-11T19:08:30.345Z,10.45
2023-04-11T19:10:56.822Z,10.46
2023-04-11T19:13:23.320Z,10.42
2023-04-11T19:15:49.867Z,10.40
2023-04-11T19:18:16.661Z,10.37
2023-04-11T19:20:43.632Z,10.35
2023-04-11T19:23:10.151Z,10.32
2023-04-11T19:25:36.937Z,10.28
2023-04-11T19:28:03.467Z,10.26
2023-04-11T19:30:30.006Z,10.25
2023-04-11T19:32:57.532Z,10.21
2023-04-11T19:35:25.217Z,10.19
2023-04-11T19:37:52.008Z,10.15
2023-04-11T19:40:18.786Z,10.12
2023-04-11T19:42:45.467Z,10.12
2023-04-11T19:45:12.269Z,10.09
2023-04-11T19:47:40.627Z,10.06
2023-04-11T19:50:12.028Z,10.00
2023-04-11T19:52:39.359Z,9.97
2023-04-11T19:55:06.513Z,9.96
2023-04-11T19:57:33.848Z,9.93
2023-04-11T20:00:00.515Z,9.92
2023-04-11T20:02:27.246Z,9.88
2023-04-11T20:04:56.114Z,9.85
2023-04-11T20:07:23.020Z,9.84
2023-04-11T20:09:49.680Z,9.79
2023-04-11T20:12:16.129Z,9.78
2023-04-11T20:14:43.841Z,9.77
2023-04-11T20:17:10.410Z,9.73
2023-04-11T20:19:39.524Z,9.71
2023-04-11T20:22:10.748Z,9.68
2023-04-11T20:24:37.211Z,9.64
2023-04-11T20:27:03.800Z,9.63
2023-04-11T20:29:32.935Z,9.61
2023-04-11T20:31:59.640Z,9.55
2023-04-11T20:34:26.141Z,9.53
2023-04-11T20:36:52.689Z,9.53
2023-04-11T20:39:19.288Z,9.49
2023-04-11T20:41:45.872Z,9.48
2023-04-11T20:44:12.316Z,9.44
2023-04-11T20:46:39.911Z,9.41
2023-04-11T20:49:06.905Z,9.39
2023-04-11T20:51:34.060Z,9.38
2023-04-11T20:54:00.714Z,9.33
2023-04-11T20:56:27.209Z,9.33
2023-04-11T20:58:53.785Z,9.29
2023-04-11T21:01:20.285Z,9.27
2023-04-11T21:03:48.195Z,9.25
2023-04-11T21:06:14.863Z,9.21
2023-04-11T21:08:41.328Z,9.21
2023-04-11T21:11:08.222Z,9.17
2023-04-11T21:13:34.836Z,9.16
2023-04-11T21:16:01.425Z,9.10
2023-04-11T21:18:28.960Z,9.06
2023-04-11T21:20:55.528Z,9.07
2023-04-11T21:23:22.174Z,9.04
2023-04-11T21:25:48.672Z,9.03
2023-04-11T21:28:15.287Z,8.98
2023-04-11T21:30:42.390Z,8.99
2023-04-11T21:33:10.334Z,8.93
2023-04-11T21:35:36.891Z,8.90
2023-04-11T21:38:03.406Z,8.91
2023-04-11T21:40:30.563Z,8.88
2023-04-11T21:42:57.098Z,8.86
2023-04-11T21:45:23.715Z,8.81
2023-04-11T21:47:53.244Z,8.82
2023-04-11T21:50:19.812Z,8.76
2023-04-11T21:52:46.796Z,8.66
2023-04-11T21:55:14.600Z,8.72
2023-04-11T21:57:41.584Z,8.69
2023-04-11T22:00:10.979Z,8.67
2023-04-11T22:02:41.329Z,8.63
2023-04-11T22:05:12.547Z,8.62
2023-04-11T22:07:48.329Z,8.59
2023-04-11T22:10:22.140Z,8.51
2023-04-11T22:12:48.957Z,8.52
2023-04-11T22:15:18.121Z,8.51
2023-04-11T22:17:50.434Z,8.49
2023-04-11T22:20:18.485Z,8.48
2023-04-11T22:22:45.170Z,8.44
2023-04-11T22:25:12.302Z,8.42
2023-04-11T22:27:39.066Z,8.38
2023-04-11T22:30:07.097Z,8.37
2023-04-11T22:32:34.191Z,8.35
2023-04-11T22:35:01.208Z,8.31
2023-04-11T22:37:27.830Z,8.27
2023-04-11T22:39:54.341Z,8.23
2023-04-11T22:42:20.923Z,8.21
2023-04-11T22:44:47.514Z,8.19
2023-04-11T22:47:16.252Z,8.21
2023-04-11T22:49:44.788Z,8.16
2023-04-11T22:52:15.183Z,8.15
2023-04-11T22:54:42.777Z,8.13
2023-04-11T22:57:09.649Z,8.10
2023-04-11T22:59:36.766Z,8.06
2023-04-11T23:02:03.402Z,8.08
2023-04-11T23:04:31.562Z,8.05
2023-04-11T23:06:58.310Z,8.02
2023-04-11T23:09:25.056Z,8.01
2023-04-11T23:11:52.167Z,7.98
2023-04-11T23:14:20.889Z,7.97
2023-04-11T23:16:47.494Z,7.93
2023-04-11T23:19:14.097Z,7.90
2023-04-11T23:21:41.050Z,7.90
2023-04-11T23:24:07.636Z,7.88
2023-04-11T23:26:34.194Z,7.87
2023-04-11T23:29:02.556Z,7.85
2023-04-11T23:31:30.979Z,7.81
2023-04-11T23:33:57.671Z,7.78
2023-04-11T23:36:24.263Z,7.79
2023-04-11T23:38:50.769Z,7.72
2023-04-11T23:41:17.331Z,7.74
2023-04-11T23:43:43.835Z,7.71
2023-04-11T23:46:10.969Z,7.71
2023-04-11T23:48:37.582Z,7.69
2023-04-11T23:51:04.318Z,7.63
2023-04-11T23:53:31.766Z,7.64
2023-04-11T23:55:58.369Z,7.60
2023-04-11T23:58:24.885Z,7.61
